createdAt,value
2023-01-25T00:02:15.552Z,66.48
2023-01-25T00:04:43.817Z,67.15
2023-01-25T00:07:11.429Z,66.80
2023-01-25T00:09:39.995Z,67.07
2023-01-25T00:12:07.860Z,66.66
2023-01-25T00:14:35.829Z,67.01
2023-01-25T00:17:03.451Z,67.19
2023-01-25T00:19:31.363Z,66.72
2023-01-25T00:21:59.063Z,67.21
2023-01-25T00:24:27.098Z,66.95
2023-01-25T00:26:54.919Z,66.37
2023-01-25T00:29:23.291Z,66.76
2023-01-25T00:32:15.448Z,66.56
2023-01-25T00:34:47.269Z,66.03
2023-01-25T00:37:24.340Z,65.54
2023-01-25T00:39:52.827Z,66.16
2023-01-25T00:42:21.425Z,66.44
2023-01-25T00:44:49.898Z,66.07
2023-01-25T00:47:17.887Z,66.52
2023-01-25T00:49:46.764Z,66.51
2023-01-25T00:52:15.087Z,66.29
2023-01-25T00:54:43.356Z,66.50
2023-01-25T00:57:11.328Z,66.05
2023-01-25T00:59:39.338Z,65.83
2023-01-25T01:02:06.917Z,65.97
2023-01-25T01:04:34.796Z,66.16
2023-01-25T01:07:02.719Z,66.12
2023-01-25T01:09:30.774Z,66.38
2023-01-25T01:11:58.851Z,66.22
2023-01-25T01:14:28.850Z,66.28
2023-01-25T01:16:58.070Z,66.09
2023-01-25T01:19:26.149Z,66.16
2023-01-25T01:21:53.785Z,66.01
2023-01-25T01:24:23.175Z,66.16
2023-01-25T01:26:50.708Z,66.96
2023-01-25T01:29:18.906Z,66.55
2023-01-25T01:31:46.782Z,66.16
2023-01-25T01:34:21.029Z,66.30
2023-01-25T01:36:48.684Z,66.32
2023-01-25T01:39:17.798Z,66.78
2023-01-25T01:41:45.819Z,66.66
2023-01-25T01:44:24.300Z,66.51
2023-01-25T01:46:59.300Z,66.71
2023-01-25T01:49:33.515Z,66.63
2023-01-25T01:52:16.449Z,66.82
2023-01-25T01:54:59.567Z,66.56
2023-01-25T01:57:43.611Z,66.84
2023-01-25T02:00:24.725Z,66.30
2023-01-25T02:02:52.907Z,66.73
2023-01-25T02:05:50.563Z,65.85
2023-01-25T02:08:20.013Z,66.50
2023-01-25T02:10:49.411Z,66.90
2023-01-25T02:13:19.315Z,67.18
2023-01-25T02:15:51.062Z,67.54
2023-01-25T02:18:19.945Z,66.89
2023-01-25T02:20:52.646Z,67.30
2023-01-25T02:23:48.348Z,67.62
2023-01-25T02:26:19.207Z,67.29
2023-01-25T02:29:11.819Z,68.05
2023-01-25T02:31:39.927Z,67.85
2023-01-25T02:34:07.797Z,68.20
2023-01-25T02:36:36.195Z,67.61
2023-01-25T02:39:13.788Z,67.59
2023-01-25T02:41:44.947Z,67.76
2023-01-25T02:44:15.812Z,67.22
2023-01-25T02:46:48.007Z,67.81
2023-01-25T02:49:16.446Z,67.70
2023-01-25T02:51:48.937Z,67.33
2023-01-25T02:54:20.283Z,67.25
2023-01-25T02:56:48.414Z,67.16
2023-01-25T02:59:16.727Z,66.99
2023-01-25T03:01:49.699Z,66.87
2023-01-25T03:04:17.778Z,67.11
2023-01-25T03:06:45.900Z,67.86
2023-01-25T03:09:13.588Z,68.02
2023-01-25T03:11:46.402Z,67.88
2023-01-25T03:14:14.232Z,68.06
2023-01-25T03:16:42.305Z,67.69
2023-01-25T03:19:11.345Z,67.92
2023-01-25T03:21:41.499Z,68.26
2023-01-25T03:24:11.325Z,67.73
2023-01-25T03:27:03.576Z,68.35
2023-01-25T03:29:54.056Z,69.01
2023-01-25T03:32:24.235Z,69.08
2023-01-25T03:34:52.956Z,69.49
2023-01-25T03:37:21.962Z,69.31
2023-01-25T03:39:50.649Z,69.21
2023-01-25T03:42:21.609Z,69.61
2023-01-25T03:44:54.225Z,69.24
2023-01-25T03:47:22.367Z,69.50
2023-01-25T03:49:49.963Z,69.45
2023-01-25T03:52:20.181Z,69.03
2023-01-25T03:54:48.721Z,69.14
2023-01-25T03:57:16.690Z,69.37
2023-01-25T03:59:59.545Z,68.99
2023-01-25T04:02:27.818Z,69.11
2023-01-25T04:04:55.975Z,68.85
2023-01-25T04:07:24.049Z,69.43
2023-01-25T04:09:52.189Z,69.11
2023-01-25T04:12:20.417Z,69.47
2023-01-25T04:14:48.195Z,69.41
2023-01-25T04:17:24.315Z,69.85
2023-01-25T04:19:54.905Z,70.00
2023-01-25T04:22:27.401Z,70.22
2023-01-25T04:24:57.127Z,70.14
2023-01-25T04:27:25.064Z,70.35
2023-01-25T04:30:04.268Z,69.83
2023-01-25T04:32:36.964Z,69.56
2023-01-25T04:35:10.663Z,69.92
2023-01-25T04:37:38.981Z,69.82
2023-01-25T04:40:08.737Z,69.83
2023-01-25T04:42:42.649Z,69.95
2023-01-25T04:45:11.381Z,70.28
2023-01-25T04:47:39.740Z,70.17
2023-01-25T04:50:08.362Z,70.31
2023-01-25T04:52:36.409Z,69.94
2023-01-25T04:55:04.227Z,70.14
2023-01-25T04:57:38.082Z,70.02
2023-01-25T05:00:06.891Z,70.26
2023-01-25T05:02:36.014Z,70.23
2023-01-25T05:05:04.168Z,70.38
2023-01-25T05:07:32.743Z,70.31
2023-01-25T05:10:00.475Z,70.47
2023-01-25T05:12:28.633Z,70.69
2023-01-25T05:15:01.057Z,70.51
2023-01-25T05:17:29.184Z,70.23
2023-01-25T05:19:56.903Z,70.53
2023-01-25T05:22:25.985Z,70.63
2023-01-25T05:24:54.335Z,70.54
2023-01-25T05:27:23.286Z,70.90
2023-01-25T05:30:11.571Z,70.72
2023-01-25T05:32:56.560Z,70.70
2023-01-25T05:35:25.497Z,70.53
2023-01-25T05:37:58.779Z,70.17
2023-01-25T05:40:27.955Z,70.09
2023-01-25T05:43:00.169Z,70.54
2023-01-25T05:45:30.274Z,70.60
2023-01-25T05:47:59.877Z,70.94
2023-01-25T05:50:27.647Z,70.60
2023-01-25T05:53:05.527Z,70.99
2023-01-25T05:55:37.084Z,70.73
2023-01-25T05:58:09.810Z,70.50
2023-01-25T06:00:39.497Z,71.17
2023-01-25T06:03:07.832Z,71.13
2023-01-25T06:05:37.797Z,71.12
2023-01-25T06:08:06.094Z,71.45
2023-01-25T06:10:43.257Z,71.18
2023-01-25T06:13:11.695Z,71.32
2023-01-25T06:15:39.423Z,71.12
2023-01-25T06:18:30.639Z,70.72
2023-01-25T06:21:17.743Z,70.66
2023-01-25T06:23:45.744Z,70.75
2023-01-25T06:26:15.730Z,70.41
2023-01-25T06:28:43.738Z,70.31
2023-01-25T06:31:19.527Z,70.23
2023-01-25T06:33:52.301Z,69.59
2023-01-25T06:36:22.959Z,69.55
2023-01-25T06:38:52.629Z,69.87
2023-01-25T06:41:21.065Z,69.74
2023-01-25T06:43:52.199Z,69.50
2023-01-25T06:46:20.682Z,69.19
2023-01-25T06:48:49.856Z,69.57
2023-01-25T06:51:18.010Z,69.34
2023-01-25T06:53:47.624Z,68.80
2023-01-25T06:56:21.892Z,68.98
2023-01-25T06:58:50.716Z,68.98
2023-01-25T07:01:30.500Z,68.42
2023-01-25T07:03:59.919Z,68.71
2023-01-25T07:06:35.612Z,68.28
2023-01-25T07:09:10.902Z,68.59
2023-01-25T07:12:51.770Z,67.37
2023-01-25T07:15:21.692Z,67.26
2023-01-25T07:17:51.419Z,67.40
2023-01-25T07:20:19.446Z,67.01
2023-01-25T07:22:47.104Z,66.60
2023-01-25T07:25:15.479Z,66.46
2023-01-25T07:27:43.034Z,66.89
2023-01-25T07:30:11.811Z,66.37
2023-01-25T07:36:04.448Z,65.95
2023-01-25T07:38:32.589Z,66.25
2023-01-25T07:41:09.916Z,66.19
2023-01-25T07:43:39.328Z,65.69
2023-01-25T07:46:29.072Z,66.00
2023-01-25T07:49:27.832Z,65.54
2023-01-25T07:51:55.831Z,65.94
2023-01-25T07:54:23.415Z,65.63
2023-01-25T07:57:01.757Z,65.56
2023-01-25T07:59:38.295Z,65.48
2023-01-25T08:02:10.577Z,65.28
2023-01-25T08:04:39.190Z,65.15
2023-01-25T08:07:07.132Z,65.79
2023-01-25T08:10:11.995Z,65.96
2023-01-25T08:13:01.726Z,65.90
2023-01-25T08:16:01.744Z,64.92
2023-01-25T08:19:15.346Z,65.30
2023-01-25T08:22:10.746Z,65.60
2023-01-25T08:24:38.884Z,65.73
2023-01-25T08:27:06.566Z,65.55
2023-01-25T08:29:34.922Z,65.36
2023-01-25T08:32:04.567Z,65.34
2023-01-25T08:34:32.985Z,65.50
2023-01-25T08:37:01.410Z,65.20
2023-01-25T08:43:31.384Z,63.57
2023-01-25T08:46:00.374Z,62.40
2023-01-25T08:48:28.079Z,61.61
2023-01-25T08:50:56.387Z,61.31
2023-01-25T08:53:23.963Z,60.99
2023-01-25T08:55:51.944Z,61.58
2023-01-25T08:58:22.105Z,62.00
2023-01-25T09:00:50.237Z,61.88
2023-01-25T09:03:18.356Z,62.33
2023-01-25T09:05:46.724Z,62.85
2023-01-25T09:08:14.525Z,63.33
2023-01-25T09:10:42.716Z,63.44
2023-01-25T09:13:10.435Z,63.26
2023-01-25T09:15:38.484Z,63.81
2023-01-25T09:18:06.942Z,63.82
2023-01-25T09:24:08.012Z,64.04
2023-01-25T09:26:42.982Z,64.23
2023-01-25T09:29:12.369Z,63.69
2023-01-25T09:31:41.179Z,64.70
2023-01-25T09:34:15.598Z,63.83
2023-01-25T09:36:43.432Z,63.63
2023-01-25T09:39:29.279Z,63.72
2023-01-25T09:42:14.971Z,62.71
2023-01-25T09:45:12.275Z,63.18
2023-01-25T09:48:04.687Z,63.52
2023-01-25T09:51:17.088Z,63.45
2023-01-25T09:53:57.307Z,63.25
2023-01-25T09:56:34.037Z,62.62
2023-01-25T09:59:23.469Z,63.20
2023-01-25T10:02:55.192Z,62.58
2023-01-25T10:05:30.779Z,62.45
2023-01-25T10:08:31.969Z,61.35
2023-01-25T10:11:31.699Z,62.00
2023-01-25T10:14:00.544Z,61.17
2023-01-25T10:17:28.649Z,61.02
2023-01-25T10:20:26.771Z,61.60
2023-01-25T10:23:22.639Z,61.53
2023-01-25T10:26:00.645Z,61.21
2023-01-25T10:28:53.735Z,61.57
2023-01-25T10:31:46.672Z,61.56
2023-01-25T10:34:56.697Z,61.41
2023-01-25T10:37:35.954Z,61.11
2023-01-25T10:40:12.855Z,61.22
2023-01-25T10:43:02.999Z,61.27
2023-01-25T10:45:30.932Z,61.30
2023-01-25T10:48:12.410Z,60.84
2023-01-25T10:50:43.656Z,60.65
2023-01-25T10:53:21.112Z,60.94
2023-01-25T10:56:19.332Z,61.51
2023-01-25T10:58:51.771Z,61.08
2023-01-25T11:01:29.109Z,61.21
2023-01-25T11:03:59.352Z,60.83
2023-01-25T11:06:46.567Z,60.54
2023-01-25T11:09:22.988Z,59.76
2023-01-25T11:11:56.811Z,60.23
2023-01-25T11:14:27.894Z,60.10
2023-01-25T11:16:57.828Z,60.31
2023-01-25T11:19:39.897Z,60.20
2023-01-25T11:22:29.439Z,60.12
2023-01-25T11:24:56.950Z,60.54
2023-01-25T11:27:27.481Z,60.96
2023-01-25T11:30:21.158Z,60.55
2023-01-25T11:32:49.336Z,60.79
2023-01-25T11:35:25.834Z,60.94
2023-01-25T11:38:17.252Z,60.08
2023-01-25T11:40:53.913Z,59.99
2023-01-25T11:43:30.818Z,59.73
2023-01-25T11:46:42.041Z,59.52
2023-01-25T11:49:30.182Z,59.52
2023-01-25T11:52:27.481Z,59.25
2023-01-25T11:55:06.678Z,60.19
2023-01-25T11:57:55.755Z,60.22
2023-01-25T12:00:53.775Z,59.77
2023-01-25T12:04:00.530Z,59.82
2023-01-25T12:06:50.378Z,60.12
2023-01-25T12:09:45.612Z,59.98
2023-01-25T12:12:46.489Z,60.09
2023-01-25T12:15:34.581Z,60.15
2023-01-25T12:18:50.140Z,58.64
2023-01-25T12:21:39.591Z,58.41
2023-01-25T12:24:53.014Z,58.15
2023-01-25T12:27:41.008Z,58.78
2023-01-25T12:30:36.882Z,58.35
2023-01-25T12:33:30.600Z,58.35
2023-01-25T12:36:45.186Z,59.05
2023-01-25T12:39:13.591Z,59.13
2023-01-25T12:42:15.340Z,59.12
2023-01-25T12:44:47.913Z,59.62
2023-01-25T12:47:49.185Z,59.82
2023-01-25T12:50:42.268Z,60.05
2023-01-25T12:53:25.188Z,59.92
2023-01-25T12:55:53.807Z,60.20
2023-01-25T12:58:49.669Z,60.08
2023-01-25T13:01:35.550Z,60.88
2023-01-25T13:04:38.261Z,60.82
2023-01-25T13:07:33.720Z,60.66
2023-01-25T13:10:20.512Z,61.84
2023-01-25T13:13:27.542Z,61.75
2023-01-25T13:15:57.166Z,60.94
2023-01-25T13:18:31.237Z,60.82
2023-01-25T13:21:06.522Z,60.86
2023-01-25T13:23:44.186Z,60.60
2023-01-25T13:26:21.900Z,60.46
2023-01-25T13:28:59.650Z,61.30
2023-01-25T13:31:52.111Z,61.49
2023-01-25T13:34:55.454Z,61.38
2023-01-25T13:37:35.197Z,61.53
2023-01-25T13:40:26.288Z,61.72
2023-01-25T13:43:17.145Z,62.24
2023-01-25T13:45:47.151Z,62.04
2023-01-25T13:48:25.073Z,61.56
2023-01-25T13:51:00.858Z,61.77
2023-01-25T13:53:35.460Z,61.65
2023-01-25T13:56:04.093Z,62.08
2023-01-25T13:58:48.001Z,62.10
2023-01-25T14:01:19.926Z,62.00
2023-01-25T14:03:51.437Z,61.37
2023-01-25T14:06:27.294Z,61.32
2023-01-25T14:08:59.801Z,60.88
2023-01-25T14:11:34.483Z,61.35
2023-01-25T14:14:18.677Z,60.61
2023-01-25T14:16:46.777Z,60.82
2023-01-25T14:19:29.022Z,61.38
2023-01-25T14:22:28.380Z,61.17
2023-01-25T14:25:22.649Z,61.26
2023-01-25T14:28:06.751Z,61.20
2023-01-25T14:30:36.689Z,61.39
2023-01-25T14:33:28.711Z,61.26
2023-01-25T14:36:24.599Z,61.27
2023-01-25T14:38:53.514Z,62.11
2023-01-25T14:41:43.773Z,61.57
2023-01-25T14:44:16.485Z,62.44
2023-01-25T14:46:44.238Z,62.60
2023-01-25T14:49:26.904Z,62.80
2023-01-25T14:52:05.320Z,63.26
2023-01-25T14:54:45.894Z,63.63
2023-01-25T14:57:38.137Z,63.42
2023-01-25T15:00:31.864Z,63.43
2023-01-25T15:03:06.999Z,63.72
2023-01-25T15:05:36.703Z,64.49
2023-01-25T15:08:07.421Z,63.51
2023-01-25T15:10:38.226Z,64.09
2023-01-25T15:13:14.810Z,64.42
2023-01-25T15:16:03.972Z,64.49
2023-01-25T15:18:48.474Z,64.65
2023-01-25T15:21:27.580Z,64.02
2023-01-25T15:23:58.821Z,63.38
2023-01-25T15:26:29.697Z,63.66
2023-01-25T15:29:05.338Z,64.36
2023-01-25T15:31:37.293Z,64.33
2023-01-25T15:34:05.754Z,63.83
2023-01-25T15:36:33.831Z,64.63
2023-01-25T15:39:01.760Z,64.31
2023-01-25T15:41:29.335Z,64.96
2023-01-25T15:43:57.138Z,63.99
2023-01-25T15:46:28.663Z,64.71
2023-01-25T15:48:56.518Z,64.30
2023-01-25T15:51:24.163Z,64.94
2023-01-25T15:53:52.721Z,64.98
2023-01-25T15:56:28.337Z,65.33
2023-01-25T15:59:00.789Z,65.94
2023-01-25T16:01:30.216Z,65.99
2023-01-25T16:04:00.024Z,65.81
2023-01-25T16:06:30.450Z,65.52
2023-01-25T16:09:00.181Z,65.92
2023-01-25T16:11:28.782Z,66.32
2023-01-25T16:13:57.961Z,66.46
2023-01-25T16:16:26.490Z,66.27
2023-01-25T16:18:55.249Z,66.54
2023-01-25T16:21:22.813Z,66.48
2023-01-25T16:23:50.665Z,66.32
2023-01-25T16:26:25.848Z,66.13
2023-01-25T16:28:53.894Z,66.86
2023-01-25T16:31:32.278Z,66.67
2023-01-25T16:34:02.211Z,66.55
2023-01-25T16:36:31.578Z,67.01
2023-01-25T16:39:13.458Z,66.71
2023-01-25T16:41:41.147Z,66.58
2023-01-25T16:44:08.933Z,66.36
2023-01-25T16:46:36.490Z,66.92
2023-01-25T16:49:07.022Z,66.90
2023-01-25T16:51:36.419Z,72.30
2023-01-25T16:54:04.242Z,69.78
2023-01-25T16:56:33.869Z,65.90
2023-01-25T16:59:05.460Z,65.50
2023-01-25T17:01:33.205Z,65.35
2023-01-25T17:04:01.396Z,65.63
2023-01-25T17:06:32.379Z,66.10
2023-01-25T17:09:20.456Z,66.24
2023-01-25T17:11:49.802Z,66.45
2023-01-25T17:14:19.642Z,67.29
2023-01-25T17:16:50.440Z,67.22
2023-01-25T17:19:20.211Z,67.71
2023-01-25T17:21:47.931Z,67.27
2023-01-25T17:24:19.667Z,67.69
2023-01-25T17:26:48.302Z,68.29
2023-01-25T17:29:16.340Z,68.46
2023-01-25T17:31:44.625Z,68.34
2023-01-25T17:34:16.156Z,68.42
2023-01-25T17:36:45.103Z,68.32
2023-01-25T17:39:15.566Z,68.19
2023-01-25T17:41:45.191Z,68.44
2023-01-25T17:44:14.600Z,67.92
2023-01-25T17:46:42.447Z,67.76
2023-01-25T17:49:13.368Z,67.63
2023-01-25T17:51:40.927Z,67.55
2023-01-25T17:54:10.795Z,67.37
2023-01-25T17:56:39.719Z,66.76
2023-01-25T17:59:11.746Z,67.03
2023-01-25T18:01:42.828Z,67.18
2023-01-25T18:04:13.292Z,66.56
2023-01-25T18:06:41.262Z,66.46
2023-01-25T18:09:09.505Z,66.70
2023-01-25T18:11:40.849Z,66.57
2023-01-25T18:14:18.709Z,66.75
2023-01-25T18:16:46.260Z,66.87
2023-01-25T18:19:14.295Z,67.30
2023-01-25T18:21:42.420Z,66.86
2023-01-25T18:24:34.179Z,67.13
2023-01-25T18:27:24.532Z,67.19
2023-01-25T18:30:09.807Z,66.84
2023-01-25T18:32:37.385Z,67.39
2023-01-25T18:35:05.924Z,67.66
2023-01-25T18:37:39.520Z,67.90
2023-01-25T18:40:09.680Z,67.62
2023-01-25T18:42:38.072Z,67.79
2023-01-25T18:45:08.535Z,67.73
2023-01-25T18:47:36.323Z,68.23
2023-01-25T18:50:05.658Z,68.71
2023-01-25T18:52:35.286Z,68.98
2023-01-25T18:55:03.299Z,68.74
2023-01-25T18:57:30.771Z,68.76
2023-01-25T18:59:59.872Z,69.05
2023-01-25T19:02:27.582Z,68.99
2023-01-25T19:04:55.692Z,69.16
2023-01-25T19:07:23.149Z,69.12
2023-01-25T19:09:51.098Z,69.13
2023-01-25T19:12:18.582Z,69.08
2023-01-25T19:14:46.363Z,69.23
2023-01-25T19:17:13.892Z,69.30
2023-01-25T19:19:44.128Z,69.88
2023-01-25T19:22:11.649Z,69.88
2023-01-25T19:24:39.488Z,70.25
2023-01-25T19:27:06.979Z,69.99
2023-01-25T19:29:36.854Z,70.01
2023-01-25T19:32:04.969Z,69.91
2023-01-25T19:34:33.651Z,69.83
2023-01-25T19:37:01.127Z,69.68
2023-01-25T19:39:29.060Z,69.55
2023-01-25T19:41:56.856Z,69.41
2023-01-25T19:44:25.310Z,69.20
2023-01-25T19:46:52.997Z,69.53
2023-01-25T19:49:22.413Z,69.31
2023-01-25T19:51:53.359Z,68.67
2023-01-25T19:54:21.904Z,68.85
2023-01-25T19:56:54.367Z,69.00
2023-01-25T19:59:25.829Z,68.79
2023-01-25T20:01:53.982Z,69.10
2023-01-25T20:04:24.453Z,68.89
2023-01-25T20:06:53.179Z,68.83
2023-01-25T20:09:32.399Z,69.16
2023-01-25T20:12:04.545Z,69.00
2023-01-25T20:14:51.499Z,69.52
2023-01-25T20:17:19.825Z,69.27
2023-01-25T20:19:48.228Z,69.32
2023-01-25T20:22:16.587Z,69.32
2023-01-25T20:24:56.202Z,69.56
2023-01-25T20:27:39.584Z,69.45
2023-01-25T20:30:12.088Z,69.65
2023-01-25T20:32:40.755Z,69.91
2023-01-25T20:35:21.958Z,69.92
2023-01-25T20:37:59.524Z,69.68
2023-01-25T20:40:27.938Z,69.87
2023-01-25T20:42:56.174Z,70.45
2023-01-25T20:45:33.011Z,70.30
2023-01-25T20:48:05.548Z,70.30
2023-01-25T20:51:02.131Z,69.51
2023-01-25T20:53:54.936Z,70.03
2023-01-25T20:56:51.618Z,70.00
2023-01-25T20:59:44.201Z,69.55
2023-01-25T21:03:02.625Z,70.04
2023-01-25T21:05:31.971Z,70.42
2023-01-25T21:08:00.103Z,70.29
2023-01-25T21:10:28.483Z,70.23
2023-01-25T21:12:56.576Z,70.02
2023-01-25T21:15:25.694Z,70.11
2023-01-25T21:18:00.865Z,70.05
2023-01-25T21:20:36.323Z,69.95
2023-01-25T21:23:05.733Z,70.27
2023-01-25T21:26:31.926Z,70.22
2023-01-25T21:29:46.810Z,69.83
2023-01-25T21:32:45.996Z,69.32
2023-01-25T21:35:29.812Z,69.19
2023-01-25T21:38:14.292Z,69.06
2023-01-25T21:40:43.062Z,69.15
2023-01-25T21:43:22.432Z,68.83
2023-01-25T21:46:14.280Z,68.88
2023-01-25T21:49:01.200Z,69.25
2023-01-25T21:52:01.322Z,68.64
2023-01-25T21:55:16.177Z,68.82
2023-01-25T21:58:44.506Z,68.60
2023-01-25T22:01:37.480Z,69.06
2023-01-25T22:04:07.449Z,68.81
2023-01-25T22:06:57.403Z,68.60
2023-01-25T22:09:27.925Z,68.57
2023-01-25T22:11:59.660Z,68.35
2023-01-25T22:14:39.438Z,68.40
2023-01-25T22:17:25.945Z,68.60
2023-01-25T22:19:55.024Z,68.24
2023-01-25T22:22:23.165Z,67.95
2023-01-25T22:24:50.776Z,67.92
2023-01-25T22:27:21.498Z,67.58
2023-01-25T22:29:49.204Z,67.40
2023-01-25T22:32:17.862Z,67.42
2023-01-25T22:34:45.588Z,66.79
2023-01-25T22:37:13.638Z,66.18
2023-01-25T22:39:41.246Z,66.15
2023-01-25T22:42:09.171Z,66.11
2023-01-25T22:44:36.673Z,65.57
2023-01-25T22:47:04.647Z,65.47
2023-01-25T22:49:32.310Z,65.27
2023-01-25T22:52:00.191Z,65.05
2023-01-25T22:54:27.783Z,65.23
2023-01-25T22:56:55.811Z,65.31
2023-01-25T22:59:23.469Z,65.21
2023-01-25T23:01:51.487Z,64.98
2023-01-25T23:04:19.282Z,64.73
2023-01-25T23:06:48.009Z,65.11
2023-01-25T23:09:15.659Z,65.02
2023-01-25T23:11:43.866Z,64.94
2023-01-25T23:14:31.183Z,64.67
2023-01-25T23:17:17.773Z,64.74
2023-01-25T23:19:45.966Z,64.57
2023-01-25T23:22:14.922Z,64.27
2023-01-25T23:24:43.670Z,64.28
2023-01-25T23:27:12.683Z,64.40
2023-01-25T23:29:40.375Z,64.52
2023-01-25T23:32:08.374Z,64.46
2023-01-25T23:34:37.669Z,64.20
2023-01-25T23:37:05.919Z,64.00
2023-01-25T23:39:33.853Z,63.42
2023-01-25T23:42:02.916Z,63.51
2023-01-25T23:44:31.360Z,63.70
2023-01-25T23:46:59.306Z,63.25
2023-01-25T23:49:26.933Z,63.26
2023-01-25T23:51:55.188Z,62.77
2023-01-25T23:54:22.884Z,63.06
2023-01-25T23:56:51.073Z,62.53
2023-01-25T23:59:18.987Z,62.59
